Time;durP1;ratioP1;P1;durP2;ratioP2;P2;SDS_P1;SDS_P2;PMS_P1;PMS_P2;Temp;Humidity;BMP_temperature;BMP_pressure;BME280_temperature;BME280_humidity;BME280_pressure;Samples;Min_cycle;Max_cycle;Signal;HPM_P1;HPM_P2
2022/09/07 00:00:42;;;;;;;6.90;5.70;;;;;;;18.96;76.31;99946.56;4362341;32;34087;-76
2022/09/07 00:03:10;;;;;;;8.23;5.45;;;;;;;18.95;75.98;99944.94;4361636;32;34805;-76
2022/09/07 00:05:46;;;;;;;6.40;5.32;;;;;;;19.13;74.65;99951.50;4362348;32;34841;-75
2022/09/07 00:08:16;;;;;;;7.15;5.53;;;;;;;19.03;75.13;99947.81;4361964;32;34029;-76
2022/09/07 00:10:51;;;;;;;6.95;5.40;;;;;;;19.08;74.81;99952.41;4348405;32;34264;-76
2022/09/07 00:13:19;;;;;;;6.10;5.22;;;;;;;18.72;76.03;99957.63;4361827;32;34864;-76
2022/09/07 00:15:47;;;;;;;8.77;5.25;;;;;;;19.13;74.13;99952.31;4362143;32;33681;-78
2022/09/07 00:18:14;;;;;;;6.10;5.30;;;;;;;19.10;73.94;99947.44;4362229;32;34080;-76
2022/09/07 00:20:42;;;;;;;5.50;4.45;;;;;;;19.13;74.00;99946.81;4361818;32;34444;-76
2022/09/07 00:23:10;;;;;;;6.68;4.78;;;;;;;19.28;73.01;99937.50;4361682;32;33347;-75
2022/09/07 00:25:38;;;;;;;6.50;4.82;;;;;;;19.42;71.93;99941.09;4362168;32;34337;-75
2022/09/07 00:28:07;;;;;;;6.22;4.97;;;;;;;19.57;71.16;99939.19;4361941;32;34948;-76
2022/09/07 00:30:39;;;;;;;6.00;4.68;;;;;;;19.50;71.43;99936.81;4362282;32;34873;-76
2022/09/07 00:33:08;;;;;;;8.93;5.30;;;;;;;19.31;71.84;99938.81;4361223;32;33509;-76
2022/09/07 00:35:40;;;;;;;6.85;5.40;;;;;;;19.26;71.81;99937.81;4348379;32;34333;-75
2022/09/07 00:38:08;;;;;;;6.30;5.07;;;;;;;19.43;70.92;99928.16;4362047;32;34537;-79
2022/09/07 00:40:36;;;;;;;6.00;4.70;;;;;;;19.01;72.51;99933.56;4362253;32;33175;-75
2022/09/07 00:43:04;;;;;;;7.00;5.00;;;;;;;19.58;70.31;99929.81;4361659;32;34122;-75
2022/09/07 00:45:31;;;;;;;6.03;4.93;;;;;;;19.23;71.51;99930.16;4361693;32;33991;-77
2022/09/07 00:48:03;;;;;;;7.00;5.00;;;;;;;19.56;70.10;99932.03;4361507;32;33858;-75
2022/09/07 00:50:36;;;;;;;6.37;5.15;;;;;;;18.66;73.71;99923.94;4348704;32;34145;-75
2022/09/07 00:53:07;;;;;;;6.65;5.30;;;;;;;18.74;73.48;99931.47;4348360;32;33472;-75
2022/09/07 00:55:37;;;;;;;6.18;5.15;;;;;;;18.49;74.75;99929.94;4348024;32;35054;-75
2022/09/07 00:58:05;;;;;;;7.87;5.78;;;;;;;18.83;73.18;99927.00;4348183;32;34231;-75
2022/09/07 01:00:33;;;;;;;6.00;4.72;;;;;;;18.80;73.49;99926.75;4361679;32;33911;-74
2022/09/07 01:03:02;;;;;;;7.78;5.03;;;;;;;19.05;72.09;99926.34;4361212;32;34810;-76
2022/09/07 01:05:46;;;;;;;6.68;5.07;;;;;;;19.21;70.66;99931.56;4347254;32;34444;-76
2022/09/07 01:08:13;;;;;;;5.90;4.35;;;;;;;18.95;71.89;99926.50;4352663;32;34788;-76
2022/09/07 01:10:41;;;;;;;6.60;5.22;;;;;;;18.90;72.02;99921.09;4348236;32;34388;-76
2022/09/07 01:13:08;;;;;;;5.72;4.72;;;;;;;18.90;71.65;99929.34;4361093;32;33567;-75
2022/09/07 01:16:10;;;;;;;7.25;5.65;;;;;;;19.05;71.51;99931.84;4361593;32;34437;-75
2022/09/07 01:18:47;;;;;;;6.68;5.10;;;;;;;18.65;72.65;99927.78;4357314;32;34848;-76
2022/09/07 01:21:22;;;;;;;6.97;5.20;;;;;;;18.83;71.86;99928.91;4363048;32;33181;-75
2022/09/07 01:24:24;;;;;;;5.72;4.90;;;;;;;18.65;72.47;99923.09;4361144;32;33702;-77
2022/09/07 01:27:06;;;;;;;6.78;5.50;;;;;;;18.55;72.69;99917.78;4343390;32;35105;-76
2022/09/07 01:29:48;;;;;;;6.18;4.87;;;;;;;18.87;71.43;99913.44;4376549;32;34198;-75
2022/09/07 01:32:35;;;;;;;6.78;5.43;;;;;;;18.84;71.25;99914.06;4371987;32;33182;-76
2022/09/07 01:35:05;;;;;;;7.22;5.20;;;;;;;18.22;73.45;99908.63;4346557;32;33554;-77
2022/09/07 01:37:42;;;;;;;9.70;5.37;;;;;;;18.43;73.14;99914.66;4360298;32;33984;-76
2022/09/07 01:40:17;;;;;;;5.90;5.07;;;;;;;18.15;74.23;99914.47;4347781;32;34078;-76
2022/09/07 01:42:52;;;;;;;6.55;5.25;;;;;;;18.32;73.33;99913.16;4347675;32;33622;-76
2022/09/07 01:45:23;;;;;;;5.80;5.05;;;;;;;18.50;72.87;99906.84;4347334;32;34815;-78
2022/09/07 01:47:54;;;;;;;6.65;5.30;;;;;;;18.33;73.27;99906.53;4347471;32;34071;-75
2022/09/07 01:50:36;;;;;;;7.60;5.12;;;;;;;18.42;72.76;99902.84;4359541;32;34640;-75
2022/09/07 01:53:14;;;;;;;7.28;5.45;;;;;;;18.66;71.92;99893.69;4359522;32;33372;-75
2022/09/07 01:55:47;;;;;;;6.62;5.20;;;;;;;18.43;72.79;99906.41;4358939;32;34795;-76
2022/09/07 01:58:37;;;;;;;7.15;5.25;;;;;;;18.60;71.79;99903.13;4374730;32;34280;-75
2022/09/07 02:01:26;;;;;;;7.03;5.20;;;;;;;18.53;72.07;99898.03;4362400;32;33635;-76
2022/09/07 02:04:03;;;;;;;8.55;5.20;;;;;;;17.95;74.56;99896.34;4375078;32;33540;-75
2022/09/07 02:06:31;;;;;;;8.43;6.00;;;;;;;18.09;73.94;99892.88;4355083;32;33713;-78
2022/09/07 02:09:02;;;;;;;7.55;5.97;;;;;;;17.92;75.30;99891.44;4360790;32;34987;-75
2022/09/07 02:11:36;;;;;;;7.00;5.45;;;;;;;18.16;74.29;99894.16;4361165;32;34152;-76
2022/09/07 02:14:42;;;;;;;8.27;5.65;;;;;;;18.15;74.43;99895.25;4347384;32;34582;-77
2022/09/07 02:17:17;;;;;;;6.93;5.10;;;;;;;18.12;74.76;99889.53;4362557;32;34048;-81
2022/09/07 02:19:58;;;;;;;8.07;6.30;;;;;;;17.99;75.46;99897.41;4339246;32;35466;-74
2022/09/07 02:22:28;;;;;;;10.32;7.50;;;;;;;17.92;75.84;99893.38;4349094;32;34391;-76
2022/09/07 02:24:58;;;;;;;7.15;5.57;;;;;;;17.40;79.03;99891.19;4349295;32;33537;-75
2022/09/07 02:27:33;;;;;;;7.15;5.80;;;;;;;17.87;76.53;99893.44;4349608;32;33604;-75
2022/09/07 02:30:01;;;;;;;7.07;5.85;;;;;;;18.09;75.62;99888.19;4351551;32;34575;-75
2022/09/07 02:32:28;;;;;;;8.57;5.57;;;;;;;18.33;73.95;99887.31;4362728;32;34025;-75
2022/09/07 02:34:56;;;;;;;7.22;5.68;;;;;;;18.60;72.29;99881.97;4362794;32;34418;-76
2022/09/07 02:37:26;;;;;;;6.68;5.30;;;;;;;18.26;73.55;99890.44;4362360;32;33666;-76
2022/09/07 02:39:53;;;;;;;6.40;4.90;;;;;;;18.44;72.21;99886.87;4349333;32;34315;-75
2022/09/07 02:42:21;;;;;;;7.05;5.40;;;;;;;18.14;73.54;99876.31;4362373;32;34093;-77
2022/09/07 02:44:49;;;;;;;7.22;5.18;;;;;;;18.09;73.42;99879.16;4349513;32;34445;-75
2022/09/07 02:47:19;;;;;;;8.32;5.95;;;;;;;18.39;71.93;99875.97;4349312;32;33799;-75
2022/09/07 02:49:56;;;;;;;7.47;5.40;;;;;;;18.24;72.26;99884.44;4362656;32;34933;-75
2022/09/07 02:52:54;;;;;;;8.05;5.97;;;;;;;18.36;71.57;99876.56;4362406;32;34067;-75
2022/09/07 02:56:00;;;;;;;7.20;5.37;;;;;;;18.20;72.37;99870.47;4362559;32;33133;-77
2022/09/07 02:58:49;;;;;;;8.82;5.30;;;;;;;18.54;70.57;99866.66;4362605;32;33627;-76
2022/09/07 03:01:34;;;;;;;6.57;5.75;;;;;;;17.83;73.69;99869.31;4362538;32;34016;-75
2022/09/07 03:04:09;;;;;;;7.30;5.78;;;;;;;17.91;73.60;99878.84;4362297;32;34195;-74
2022/09/07 03:06:38;;;;;;;7.57;5.95;;;;;;;18.24;72.64;99879.75;4355437;32;34353;-75
2022/09/07 03:09:17;;;;;;;7.45;5.70;;;;;;;18.07;73.41;99875.88;4349078;32;34374;-75
2022/09/07 03:11:45;;;;;;;7.95;6.53;;;;;;;17.83;74.66;99869.31;4362310;32;34331;-74
2022/09/07 03:14:24;;;;;;;7.32;6.30;;;;;;;17.82;75.02;99867.69;4348448;32;35190;-77
2022/09/07 03:16:55;;;;;;;7.85;6.20;;;;;;;17.47;77.25;99865.34;4349648;32;33549;-81
2022/09/07 03:19:22;;;;;;;8.13;6.57;;;;;;;17.67;76.30;99870.59;4348508;32;34938;-79
2022/09/07 03:21:50;;;;;;;8.80;6.15;;;;;;;18.27;73.24;99869.28;4362213;32;33712;-74
2022/09/07 03:24:17;;;;;;;9.00;6.35;;;;;;;18.21;73.30;99863.87;4362558;32;34211;-76
2022/09/07 03:26:50;;;;;;;7.25;5.85;;;;;;;17.80;75.24;99863.59;4361118;32;33302;-76
2022/09/07 03:29:18;;;;;;;7.70;6.22;;;;;;;17.56;76.02;99858.94;4360644;32;33923;-76
2022/09/07 03:31:46;;;;;;;8.77;6.57;;;;;;;17.34;77.51;99864.13;4353512;32;33956;-78
2022/09/07 03:34:13;;;;;;;7.70;5.68;;;;;;;17.67;76.12;99872.50;4347325;33;33650;-74
2022/09/07 03:36:40;;;;;;;7.55;6.03;;;;;;;17.85;75.27;99869.03;4352366;32;33175;-73
2022/09/07 03:39:10;;;;;;;8.20;6.10;;;;;;;18.04;74.17;99871.81;4360344;32;33849;-74
2022/09/07 03:41:37;;;;;;;8.20;6.32;;;;;;;18.40;71.46;99872.13;4362045;32;34525;-77
2022/09/07 03:44:05;;;;;;;7.07;5.60;;;;;;;18.21;72.00;99871.31;4360513;32;33986;-77
2022/09/07 03:46:33;;;;;;;7.28;5.82;;;;;;;18.18;72.07;99877.38;4348860;32;34027;-73
2022/09/07 03:49:01;;;;;;;10.68;6.15;;;;;;;18.21;71.99;99877.59;4362200;32;33983;-75
2022/09/07 03:51:28;;;;;;;6.95;5.68;;;;;;;17.98;72.75;99871.03;4361578;32;34062;-79
2022/09/07 03:53:56;;;;;;;8.02;6.40;;;;;;;17.90;72.89;99879.94;4348438;32;34566;-79
2022/09/07 03:56:24;;;;;;;7.80;5.43;;;;;;;17.95;72.92;99877.13;4350041;32;33503;-72
2022/09/07 03:58:52;;;;;;;6.90;5.57;;;;;;;17.69;73.99;99884.84;4346713;32;34400;-75
2022/09/07 04:01:22;;;;;;;7.00;5.78;;;;;;;17.88;73.37;99878.59;4346549;33;35086;-73
2022/09/07 04:03:50;;;;;;;6.55;5.60;;;;;;;18.03;72.92;99872.91;4346226;33;34434;-73
2022/09/07 04:06:18;;;;;;;7.93;5.70;;;;;;;18.22;71.34;99881.16;4346566;33;33404;-75
2022/09/07 04:08:46;;;;;;;10.02;6.20;;;;;;;17.73;73.39;99885.06;4360643;32;32164;-74
2022/09/07 04:11:17;;;;;;;7.62;5.90;;;;;;;18.28;71.19;99887.41;4362002;32;33862;-74
2022/09/07 04:13:45;;;;;;;7.82;6.43;;;;;;;17.90;72.16;99890.09;4346649;32;34586;-75
2022/09/07 04:16:18;;;;;;;8.43;6.68;;;;;;;17.63;72.77;99894.25;4347589;33;33466;-74
2022/09/07 04:18:49;;;;;;;9.65;7.40;;;;;;;17.89;72.48;99891.22;4346800;33;34741;-74
2022/09/07 04:21:17;;;;;;;12.57;7.45;;;;;;;17.85;72.96;99888.25;4358021;32;33990;-73
2022/09/07 04:23:44;;;;;;;10.00;7.32;;;;;;;18.11;72.26;99890.66;4357983;32;34826;-74
2022/09/07 04:26:15;;;;;;;11.20;7.28;;;;;;;17.70;73.89;99889.22;4333477;32;33697;-70
2022/09/07 04:28:43;;;;;;;11.68;8.68;;;;;;;17.54;75.64;99896.81;4351168;32;33592;-75
2022/09/07 04:31:12;;;;;;;10.93;8.70;;;;;;;17.51;77.15;99899.31;4347276;33;34251;-75
2022/09/07 04:33:41;;;;;;;11.00;8.52;;;;;;;17.77;76.49;99900.63;4346840;33;33622;-75
2022/09/07 04:36:08;;;;;;;11.27;8.98;;;;;;;18.10;75.06;99900.00;4343465;32;33758;-75
2022/09/07 04:38:36;;;;;;;11.77;9.23;;;;;;;18.28;74.24;99912.13;4361079;32;33630;-75
2022/09/07 04:41:07;;;;;;;12.80;9.30;;;;;;;18.27;74.53;99908.53;4356147;32;34246;-75
2022/09/07 04:43:36;;;;;;;12.52;9.18;;;;;;;17.93;76.80;99915.03;4333423;33;34349;-80
2022/09/07 04:46:05;;;;;;;12.57;8.88;;;;;;;18.59;74.19;99920.72;4346159;33;33975;-72
2022/09/07 04:48:33;;;;;;;13.00;9.50;;;;;;;17.94;77.03;99913.12;4357969;32;33988;-77
2022/09/07 04:51:07;;;;;;;12.77;9.90;;;;;;;18.27;75.96;99924.22;4354844;32;33998;-73
2022/09/07 04:53:35;;;;;;;;;;;;;;;18.18;75.98;99913.88;4348067;32;33866;-75
2022/09/07 04:56:03;;;;;;;13.20;9.35;;;;;;;18.39;74.82;99921.84;4353155;32;32929;-79
2022/09/07 04:58:31;;;;;;;13.75;9.30;;;;;;;18.41;75.76;99912.19;4346412;33;34001;-76
2022/09/07 05:01:03;;;;;;;12.70;9.70;;;;;;;18.19;77.82;99917.47;4332968;33;35328;-85
2022/09/07 05:03:33;;;;;;;12.20;9.27;;;;;;;18.63;76.02;99913.53;4346543;33;34800;-76
2022/09/07 05:06:04;;;;;;;12.07;9.40;;;;;;;18.33;75.72;99917.53;4346060;33;34953;-76
2022/09/07 05:08:40;;;;;;;10.23;7.62;;;;;;;18.70;74.31;99911.19;4355365;32;33970;-76
2022/09/07 05:11:09;;;;;;;10.20;7.80;;;;;;;18.72;74.01;99911.72;4361192;32;34212;-77
2022/09/07 05:13:37;;;;;;;9.85;7.78;;;;;;;18.61;75.05;99921.25;4361102;32;34787;-75
2022/09/07 05:16:16;;;;;;;9.38;7.53;;;;;;;19.02;74.19;99915.94;4347900;32;33206;-77
2022/09/07 05:18:48;;;;;;;9.10;7.22;;;;;;;18.90;74.62;99918.34;4358142;32;34033;-74
2022/09/07 05:21:18;;;;;;;9.18;6.65;;;;;;;18.96;74.84;99922.66;4360913;32;34259;-76
2022/09/07 05:23:51;;;;;;;10.73;7.03;;;;;;;18.83;75.43;99929.75;4361221;32;34018;-73
2022/09/07 05:26:20;;;;;;;9.45;6.95;;;;;;;19.06;72.34;99929.91;4360008;32;33533;-81
2022/09/07 05:28:48;;;;;;;8.52;6.12;;;;;;;19.27;71.34;99925.69;4359644;32;34926;-81
2022/09/07 05:31:19;;;;;;;8.80;6.43;;;;;;;19.45;71.68;99926.72;4360475;32;34142;-82
2022/09/07 05:33:51;;;;;;;8.05;5.75;;;;;;;19.61;69.32;99931.94;4360689;32;33888;-81
2022/09/07 05:36:39;;;;;;;7.85;5.78;;;;;;;19.95;68.43;99936.25;4360306;32;33489;-80
2022/09/07 05:39:07;;;;;;;8.50;5.80;;;;;;;20.13;69.19;99935.34;4360544;32;33920;-81
2022/09/07 05:41:35;;;;;;;10.05;5.97;;;;;;;20.09;67.40;99937.06;4360628;32;35129;-75
2022/09/07 05:44:03;;;;;;;7.70;5.57;;;;;;;20.10;67.35;99932.37;4359191;32;33698;-76
2022/09/07 05:46:51;;;;;;;6.57;5.20;;;;;;;20.16;69.00;99934.72;4360708;32;33613;-81
2022/09/07 05:49:18;;;;;;;8.05;5.20;;;;;;;20.71;66.62;99932.97;4359157;32;33687;-74
2022/09/07 05:51:47;;;;;;;9.02;5.50;;;;;;;20.55;66.22;99936.06;4360833;32;34058;-77
2022/09/07 05:54:14;;;;;;;7.40;5.30;;;;;;;20.20;65.88;99941.25;4362457;32;34184;-78
2022/09/07 05:56:42;;;;;;;6.80;4.97;;;;;;;20.19;66.22;99936.03;4362331;32;33179;-75
2022/09/07 05:59:09;;;;;;;6.22;5.25;;;;;;;20.27;66.86;99943.56;4362273;32;33801;-74
2022/09/07 06:01:37;;;;;;;7.35;5.47;;;;;;;20.53;67.64;99943.81;4362213;32;33682;-84
2022/09/07 06:04:05;;;;;;;7.90;5.87;;;;;;;20.73;64.20;99938.97;4362171;32;33929;-81
2022/09/07 06:06:37;;;;;;;7.70;5.70;;;;;;;20.74;63.92;99940.63;4362100;32;34924;-85
2022/09/07 06:09:06;;;;;;;7.30;5.80;;;;;;;20.72;64.39;99938.19;4361971;32;33994;-81
2022/09/07 06:11:33;;;;;;;8.57;5.12;;;;;;;21.03;64.22;99946.50;4360380;32;34169;-79
2022/09/07 06:14:00;;;;;;;7.72;5.50;;;;;;;21.17;63.43;99942.88;4357122;32;33986;-79
2022/09/07 06:16:28;;;;;;;6.55;5.05;;;;;;;21.01;62.63;99947.97;4360700;32;33226;-76
2022/09/07 06:18:55;;;;;;;6.80;5.15;;;;;;;21.04;65.13;99950.91;4362346;32;33847;-75
2022/09/07 06:21:23;;;;;;;6.93;5.37;;;;;;;21.23;63.02;99949.88;4361896;32;35077;-85
2022/09/07 06:23:51;;;;;;;7.65;5.07;;;;;;;21.43;62.05;99945.84;4361413;32;34353;-74
2022/09/07 06:26:18;;;;;;;8.10;5.47;;;;;;;21.57;63.50;99951.25;4361359;32;34105;-79
2022/09/07 06:28:47;;;;;;;7.15;4.90;;;;;;;21.27;61.35;99950.88;4361814;32;34561;-73
2022/09/07 06:31:19;;;;;;;6.32;5.05;;;;;;;21.46;61.01;99943.22;4362289;32;34233;-83
2022/09/07 06:33:47;;;;;;;6.90;5.03;;;;;;;21.65;60.82;99944.97;4348930;32;34581;-80
2022/09/07 06:36:16;;;;;;;5.85;4.87;;;;;;;21.85;60.05;99940.81;4362047;32;33316;-89
2022/09/07 06:38:45;;;;;;;6.85;5.18;;;;;;;21.64;59.89;99935.03;4348737;32;33686;-73
2022/09/07 06:41:15;;;;;;;6.53;4.85;;;;;;;21.71;60.13;99933.44;4362218;32;35043;-79
2022/09/07 06:44:03;;;;;;;8.45;5.65;;;;;;;21.55;62.41;99937.75;4350698;32;33917;-70
2022/09/07 06:46:30;;;;;;;8.93;5.93;;;;;;;21.08;63.62;99938.13;4362374;32;33599;-84
2022/09/07 06:49:18;;;;;;;6.20;4.75;;;;;;;21.26;62.58;99938.22;4362217;32;34632;-84
2022/09/07 06:51:46;;;;;;;6.82;5.10;;;;;;;21.61;61.01;99943.97;4362335;32;33857;-71
2022/09/07 06:54:14;;;;;;;6.22;4.87;;;;;;;21.58;62.85;99942.66;4362245;32;34047;-77
2022/09/07 06:57:07;;;;;;;6.93;5.05;;;;;;;21.46;62.23;99934.16;4361785;32;34151;-89
2022/09/07 06:59:36;;;;;;;7.07;5.57;;;;;;;21.99;60.54;99938.75;4362361;32;34825;-75
2022/09/07 07:02:06;;;;;;;7.43;5.03;;;;;;;21.34;61.78;99934.72;4362018;32;35032;-77
2022/09/07 07:04:33;;;;;;;7.65;5.97;;;;;;;21.36;62.11;99926.94;4360411;32;34062;-74
2022/09/07 07:07:11;;;;;;;7.07;5.47;;;;;;;21.38;64.60;99930.19;4364206;32;34282;-76
2022/09/07 07:09:39;;;;;;;6.22;4.87;;;;;;;21.76;65.43;99939.97;4376490;32;34701;-71
2022/09/07 07:12:08;;;;;;;8.93;5.53;;;;;;;21.86;61.45;99940.50;4376413;32;34105;-70
2022/09/07 07:14:36;;;;;;;8.57;6.07;;;;;;;22.04;61.40;99940.53;4376602;32;33958;-70
2022/09/07 07:17:09;;;;;;;8.27;5.80;;;;;;;22.05;60.11;99944.91;4375232;32;33481;-69
2022/09/07 07:19:36;;;;;;;8.70;5.40;;;;;;;22.05;61.98;99943.00;4376778;32;34012;-70
2022/09/07 07:22:03;;;;;;;7.12;5.50;;;;;;;21.95;61.02;99946.03;4376211;32;34002;-71
2022/09/07 07:24:51;;;;;;;8.00;5.40;;;;;;;21.97;61.11;99945.72;4376790;32;33967;-73
2022/09/07 07:27:20;;;;;;;8.05;5.93;;;;;;;21.98;60.97;99947.34;4376351;32;33258;-73
2022/09/07 07:29:48;;;;;;;7.85;5.50;;;;;;;21.69;61.33;99943.19;4376673;32;34784;-75
2022/09/07 07:32:16;;;;;;;8.40;5.97;;;;;;;22.46;59.34;99941.81;4376398;32;33876;-72
2022/09/07 07:34:43;;;;;;;8.23;5.62;;;;;;;22.15;59.84;99949.34;4377150;32;33599;-75
2022/09/07 07:37:10;;;;;;;8.40;6.20;;;;;;;22.73;58.16;99942.63;4376398;32;33432;-75
2022/09/07 07:39:38;;;;;;;7.85;5.35;;;;;;;22.22;58.29;99944.16;4376099;32;33916;-72
2022/09/07 07:42:25;;;;;;;8.48;5.65;;;;;;;22.19;58.38;99942.03;4376040;32;34554;-74
2022/09/07 07:44:54;;;;;;;7.22;5.40;;;;;;;22.29;58.67;99948.13;4376710;32;33975;-71
2022/09/07 07:47:41;;;;;;;6.97;5.57;;;;;;;22.21;59.25;99948.06;4376454;32;33819;-73
2022/09/07 07:50:09;;;;;;;7.50;5.68;;;;;;;21.79;60.71;99944.84;4376190;32;33899;-70
2022/09/07 07:52:56;;;;;;;7.20;5.62;;;;;;;22.05;60.36;99950.44;4375463;32;34488;-76
2022/09/07 07:55:44;;;;;;;8.57;5.93;;;;;;;22.18;58.49;99943.16;4376624;32;33793;-73
2022/09/07 07:58:11;;;;;;;7.60;5.60;;;;;;;22.66;58.04;99934.81;4376089;32;34254;-73
2022/09/07 08:00:39;;;;;;;7.90;5.43;;;;;;;21.94;61.10;99938.06;4376437;32;34704;-75
2022/09/07 08:03:24;;;;;;;7.43;5.40;;;;;;;22.36;59.08;99935.78;4376426;32;34915;-74
2022/09/07 08:05:52;;;;;;;7.65;5.12;;;;;;;22.34;58.58;99940.81;4376174;32;34945;-72
2022/09/07 08:08:21;;;;;;;6.37;5.10;;;;;;;22.63;59.35;99929.91;4376159;32;33438;-70
2022/09/07 08:10:49;;;;;;;8.18;5.20;;;;;;;22.48;59.21;99942.28;4362920;32;34790;-73
2022/09/07 08:13:18;;;;;;;8.80;5.22;;;;;;;22.91;58.38;99946.19;4365779;32;34923;-72
2022/09/07 08:15:45;;;;;;;6.62;4.90;;;;;;;22.73;59.28;99948.97;4361698;32;34788;-74
2022/09/07 08:18:15;;;;;;;7.07;5.30;;;;;;;22.80;58.51;99948.47;4361499;32;34165;-74
2022/09/07 08:20:42;;;;;;;6.70;5.40;;;;;;;22.88;56.88;99938.53;4357539;32;34033;-74
2022/09/07 08:23:10;;;;;;;5.57;4.65;;;;;;;23.16;56.41;99943.75;4361422;32;34119;-73
2022/09/07 08:25:38;;;;;;;6.57;5.03;;;;;;;23.09;56.53;99939.53;4361409;32;34500;-79
2022/09/07 08:28:05;;;;;;;6.25;4.55;;;;;;;22.85;55.69;99945.56;4360920;32;34268;-75
2022/09/07 08:30:32;;;;;;;6.90;5.32;;;;;;;22.63;57.29;99934.63;4361017;32;33965;-74
2022/09/07 08:33:00;;;;;;;8.25;5.10;;;;;;;22.90;57.30;99942.59;4361399;32;34033;-77
2022/09/07 08:35:27;;;;;;;7.65;5.10;;;;;;;23.16;57.01;99947.34;4361036;32;33606;-76
2022/09/07 08:37:55;;;;;;;6.72;5.15;;;;;;;23.19;56.21;99937.56;4361660;32;33492;-75
2022/09/07 08:40:22;;;;;;;6.55;4.57;;;;;;;23.68;54.39;99940.81;4360818;32;33609;-79
2022/09/07 08:43:11;;;;;;;7.20;4.80;;;;;;;23.70;54.22;99941.31;4361310;32;34926;-75
2022/09/07 08:45:43;;;;;;;8.02;5.35;;;;;;;23.47;54.71;99933.22;4361129;32;34055;-77
2022/09/07 08:48:14;;;;;;;5.82;4.35;;;;;;;23.63;55.22;99941.00;4348294;32;34292;-82
2022/09/07 08:50:55;;;;;;;7.40;4.85;;;;;;;23.46;54.20;99933.59;4361865;32;34900;-75
2022/09/07 08:53:23;;;;;;;6.53;4.80;;;;;;;23.31;57.32;99934.94;4358727;32;34302;-73
2022/09/07 08:56:00;;;;;;;6.80;4.68;;;;;;;23.77;54.35;99936.09;4361380;32;34257;-73
2022/09/07 08:58:38;;;;;;;6.18;4.62;;;;;;;23.55;55.54;99928.81;4348170;32;33651;-69
2022/09/07 09:01:34;;;;;;;6.37;4.43;;;;;;;23.74;55.40;99929.22;4361541;32;34822;-70
2022/09/07 09:04:10;;;;;;;5.87;4.35;;;;;;;24.13;54.68;99924.47;4347491;32;34003;-70
2022/09/07 09:06:52;;;;;;;4.95;4.15;;;;;;;23.94;55.16;99921.34;4349442;32;33985;-69
2022/09/07 09:09:39;;;;;;;5.55;4.22;;;;;;;24.74;52.79;99918.50;4360789;32;34069;-70
2022/09/07 09:12:27;;;;;;;6.25;4.43;;;;;;;24.90;52.68;99929.81;4361032;32;34021;-69
2022/09/07 09:15:20;;;;;;;5.05;3.83;;;;;;;24.62;52.65;99935.13;4361235;32;33045;-70
2022/09/07 09:18:02;;;;;;;7.55;4.75;;;;;;;25.28;51.96;99927.97;4361471;32;33688;-77
2022/09/07 09:20:40;;;;;;;6.55;5.18;;;;;;;25.04;51.03;99921.16;4348105;32;33558;-77
2022/09/07 09:23:14;;;;;;;7.65;5.20;;;;;;;24.65;50.92;99917.78;4346916;32;34996;-73
2022/09/07 09:25:54;;;;;;;8.35;5.40;;;;;;;24.88;50.77;99920.19;4361503;32;34248;-74
2022/09/07 09:28:22;;;;;;;7.93;4.97;;;;;;;25.23;49.35;99925.44;4363159;32;34492;-74
2022/09/07 09:30:52;;;;;;;6.12;4.72;;;;;;;25.45;49.87;99913.09;4363155;32;33745;-74
2022/09/07 09:33:22;;;;;;;4.82;4.10;;;;;;;25.77;49.51;99917.75;4362815;32;33992;-72
2022/09/07 09:35:52;;;;;;;6.35;5.10;;;;;;;25.64;50.15;99910.56;4363225;32;34083;-75
2022/09/07 09:38:42;;;;;;;8.18;4.53;;;;;;;25.67;48.18;99907.09;4349579;32;34181;-73
2022/09/07 09:41:14;;;;;;;5.37;4.45;;;;;;;25.38;49.04;99906.12;4363127;32;32945;-71
2022/09/07 09:43:50;;;;;;;6.53;4.70;;;;;;;25.80;48.25;99905.12;4349250;32;34023;-73
2022/09/07 09:46:25;;;;;;;6.03;4.50;;;;;;;25.97;48.04;99909.66;4363138;32;34055;-74
2022/09/07 09:48:56;;;;;;;5.55;4.47;;;;;;;25.85;47.54;99904.06;4349734;32;34187;-74
2022/09/07 09:51:25;;;;;;;5.22;4.25;;;;;;;25.84;48.94;99906.03;4362771;32;34116;-74
2022/09/07 09:54:21;;;;;;;5.90;4.45;;;;;;;25.67;48.69;99903.50;4351518;32;34080;-74
2022/09/07 09:56:49;;;;;;;6.75;5.10;;;;;;;25.68;49.56;99899.56;4360362;32;34017;-73
2022/09/07 09:59:17;;;;;;;6.43;4.50;;;;;;;25.76;48.45;99890.28;4361917;32;34666;-72
2022/09/07 10:02:31;;;;;;;6.53;4.75;;;;;;;26.11;48.00;99890.66;4362667;32;34422;-72
2022/09/07 10:05:21;;;;;;;7.70;4.57;;;;;;;26.08;48.63;99883.00;4361803;32;33934;-73
2022/09/07 10:07:51;;;;;;;5.53;4.60;;;;;;;26.15;47.91;99899.91;4362510;32;33885;-72
2022/09/07 10:10:18;;;;;;;5.50;4.20;;;;;;;26.46;46.37;99903.19;4361091;32;34016;-72
2022/09/07 10:12:46;;;;;;;5.10;4.12;;;;;;;26.60;45.29;99896.09;4362514;32;33873;-73
2022/09/07 10:15:28;;;;;;;5.82;4.43;;;;;;;26.69;46.43;99889.59;4363085;32;34063;-73
2022/09/07 10:17:57;;;;;;;5.87;4.40;;;;;;;26.59;48.06;99885.34;4362573;32;34341;-74
2022/09/07 10:20:31;;;;;;;4.87;3.72;;;;;;;26.87;45.98;99881.72;4361567;32;34550;-71
2022/09/07 10:22:59;;;;;;;6.30;4.95;;;;;;;27.22;42.56;99887.50;4361078;32;34369;-79
2022/09/07 10:25:32;;;;;;;5.40;4.05;;;;;;;27.07;44.37;99875.12;4362323;32;34824;-73
2022/09/07 10:28:01;;;;;;;;;;;;;;;26.78;44.85;99870.75;4363015;32;34035;-73
2022/09/07 10:30:36;;;;;;;6.97;4.22;;;;;;;26.65;45.91;99872.78;4361679;32;34096;-74
2022/09/07 10:33:11;;;;;;;5.15;4.05;;;;;;;27.17;45.04;99885.75;4361319;32;34293;-73
2022/09/07 10:36:03;;;;;;;4.53;3.83;;;;;;;27.58;44.14;99880.03;4361558;32;33796;-75
2022/09/07 10:38:34;;;;;;;5.47;4.18;;;;;;;27.92;43.19;99877.69;4349658;32;34211;-82
2022/09/07 10:41:06;;;;;;;5.25;3.80;;;;;;;28.32;42.85;99877.41;4349016;32;33844;-81
2022/09/07 10:43:43;;;;;;;5.53;4.30;;;;;;;28.09;44.47;99879.28;4349176;32;33682;-78
2022/09/07 10:46:23;;;;;;;4.30;3.65;;;;;;;27.95;42.67;99875.00;4349380;32;33953;-78
2022/09/07 10:49:33;;;;;;;6.07;4.30;;;;;;;28.21;42.87;99873.56;4362269;32;34408;-77
2022/09/07 10:52:12;;;;;;;5.43;3.75;;;;;;;27.92;42.31;99869.31;4348779;32;34094;-75
2022/09/07 10:55:11;;;;;;;5.45;4.53;;;;;;;28.05;43.94;99875.59;4362537;32;33960;-77
2022/09/07 10:57:44;;;;;;;6.68;5.68;;;;;;;28.51;42.58;99868.28;4349231;32;34668;-75
2022/09/07 11:00:17;;;;;;;7.00;5.30;;;;;;;29.14;40.31;99871.91;4362504;32;33875;-79
2022/09/07 11:03:39;;;;;;;7.05;5.53;;;;;;;29.15;41.86;99865.13;4360981;32;34477;-76
2022/09/07 11:06:16;;;;;;;9.80;7.43;;;;;;;29.23;41.31;99862.06;4324087;33;31982;-76
2022/09/07 11:08:50;;;;;;;9.50;8.30;;;;;;;29.14;41.39;99872.69;4357731;32;33544;-77
2022/09/07 11:11:38;;;;;;;10.98;9.82;;;;;;;29.47;38.79;99868.47;4376101;32;33861;-78
2022/09/07 11:14:27;;;;;;;10.65;8.43;;;;;;;29.41;38.18;99865.16;4375344;32;33198;-75
2022/09/07 11:17:02;;;;;;;9.95;8.32;;;;;;;28.42;42.09;99862.88;4361180;32;34114;-76
2022/09/07 11:19:38;;;;;;;9.43;7.87;;;;;;;28.54;42.54;99856.34;4359585;32;34698;-76
2022/09/07 11:22:18;;;;;;;8.93;7.62;;;;;;;29.13;40.76;99851.50;4375538;32;34933;-80
2022/09/07 11:25:15;;;;;;;9.60;8.60;;;;;;;29.30;40.69;99850.22;4375847;32;33950;-76
2022/09/07 11:28:02;;;;;;;9.77;8.63;;;;;;;28.85;40.78;99846.19;4361274;32;33086;-76
2022/09/07 11:30:36;;;;;;;9.65;8.05;;;;;;;28.74;41.95;99856.34;4363095;32;34610;-79
2022/09/07 11:33:26;;;;;;;12.02;9.07;;;;;;;28.57;42.19;99855.59;4376326;32;35245;-78
2022/09/07 11:36:01;;;;;;;10.35;8.88;;;;;;;28.32;42.00;99848.69;4375145;32;33947;-78
2022/09/07 11:38:33;;;;;;;11.25;9.70;;;;;;;28.46;41.52;99848.19;4363388;32;33823;-74
2022/09/07 11:41:18;;;;;;;11.70;8.85;;;;;;;27.99;42.29;99842.41;4375338;32;34026;-74
2022/09/07 11:44:08;;;;;;;9.07;8.18;;;;;;;28.60;42.11;99842.91;4375434;32;34281;-75
2022/09/07 11:46:42;;;;;;;9.38;8.35;;;;;;;29.30;41.76;99841.03;4375910;32;34000;-74
2022/09/07 11:49:23;;;;;;;9.15;8.20;;;;;;;28.92;42.09;99845.50;4359859;32;34221;-76
2022/09/07 11:51:56;;;;;;;13.50;9.00;;;;;;;29.48;40.50;99839.31;4371331;32;34767;-73
2022/09/07 11:54:30;;;;;;;10.00;9.00;;;;;;;29.67;39.80;99841.22;4360784;32;34267;-78
2022/09/07 11:57:22;;;;;;;10.38;9.27;;;;;;;28.55;42.45;99834.81;4376850;32;33565;-75
2022/09/07 11:59:53;;;;;;;10.90;9.77;;;;;;;28.92;43.21;99835.16;4376211;32;34313;-74
2022/09/07 12:02:43;;;;;;;11.68;9.60;;;;;;;29.07;41.96;99829.81;4374968;32;33987;-80